createdAt,value
2018-02-05T00:00:43.898Z,-2.3
2018-02-05T00:01:50.162Z,-2.3
2018-02-05T00:02:55.637Z,-2.3
2018-02-05T00:04:03.777Z,-2.3
2018-02-05T00:05:11.345Z,-2.4
2018-02-05T00:06:14.767Z,-2.3
2018-02-05T00:07:56.984Z,-2.3
2018-02-05T00:09:02.263Z,-2.4
2018-02-05T00:10:05.784Z,-2.4
2018-02-05T00:11:10.253Z,-2.3
2018-02-05T00:12:17.505Z,-2.3
2018-02-05T00:13:21.107Z,-2.3
2018-02-05T00:14:25.696Z,-2.4
2018-02-05T00:15:30.460Z,-2.4
2018-02-05T00:16:34.278Z,-2.4
2018-02-05T00:17:39.594Z,-2.4
2018-02-05T00:18:48.979Z,-2.4
2018-02-05T00:19:53.782Z,-2.4
2018-02-05T00:20:58.007Z,-2.5
2018-02-05T00:22:05.887Z,-2.5
2018-02-05T00:23:09.728Z,-2.4
2018-02-05T00:24:15.225Z,-2.4
2018-02-05T00:25:19.353Z,-2.5
2018-02-05T00:26:24.394Z,-2.5
2018-02-05T00:27:28.585Z,-2.5
2018-02-05T00:28:32.096Z,-2.6
2018-02-05T00:29:40.040Z,-2.6
2018-02-05T00:30:43.430Z,-2.6
2018-02-05T00:31:48.768Z,-2.5
2018-02-05T00:32:53.946Z,-2.5
2018-02-05T00:33:58.668Z,-2.5
2018-02-05T00:35:03.201Z,-2.5
2018-02-05T00:36:07.443Z,-2.5
2018-02-05T00:37:12.941Z,-2.5
2018-02-05T00:38:17.214Z,-2.5
2018-02-05T00:39:20.475Z,-2.5
2018-02-05T00:40:29.944Z,-2.5
2018-02-05T00:41:33.356Z,-2.5
2018-02-05T00:42:37.409Z,-2.5
2018-02-05T00:43:42.597Z,-2.5
2018-02-05T00:44:47.786Z,-2.6
2018-02-05T00:45:52.428Z,-2.5
2018-02-05T00:46:56.501Z,-2.5
2018-02-05T00:48:00.717Z,-2.5
2018-02-05T00:49:04.161Z,-2.4
2018-02-05T00:50:09.148Z,-2.5
2018-02-05T00:51:17.261Z,-2.4
2018-02-05T00:52:20.768Z,-2.5
2018-02-05T00:53:25.361Z,-2.5
2018-02-05T00:54:28.946Z,-2.4
2018-02-05T00:55:34.443Z,-2.4
2018-02-05T00:56:39.266Z,-2.5
2018-02-05T00:57:43.526Z,-2.5
2018-02-05T00:58:47.320Z,-2.5
2018-02-05T00:59:52.807Z,-2.5
2018-02-05T01:00:56.838Z,-2.5
2018-02-05T01:02:38.681Z,-2.6
2018-02-05T01:03:42.127Z,-2.6
2018-02-05T01:04:46.195Z,-2.6
2018-02-05T01:05:49.830Z,-2.6
2018-02-05T01:06:54.603Z,-2.6
2018-02-05T01:08:00.337Z,-2.6
2018-02-05T01:09:05.348Z,-2.6
2018-02-05T01:10:10.988Z,-2.6
2018-02-05T01:11:14.470Z,-2.7
2018-02-05T01:12:19.064Z,-2.6
2018-02-05T01:13:27.520Z,-2.6
2018-02-05T01:14:32.015Z,-2.7
2018-02-05T01:15:36.980Z,-2.7
2018-02-05T01:16:44.121Z,-2.8
2018-02-05T01:17:48.192Z,-2.8
2018-02-05T01:18:52.925Z,-2.9
2018-02-05T01:19:57.577Z,-2.9
2018-02-05T01:21:01.006Z,-2.9
2018-02-05T01:22:04.917Z,-2.9
2018-02-05T01:23:09.491Z,-2.9
2018-02-05T01:24:16.807Z,-2.9
2018-02-05T01:25:20.815Z,-2.9
2018-02-05T01:26:26.795Z,-2.9
2018-02-05T01:27:35.714Z,-2.9
2018-02-05T01:28:39.246Z,-2.9
2018-02-05T01:29:43.287Z,-2.9
2018-02-05T01:30:46.769Z,-2.9
2018-02-05T01:31:51.696Z,-2.9
2018-02-05T01:32:55.979Z,-2.9
2018-02-05T01:33:59.524Z,-2.9
2018-02-05T01:35:07.362Z,-2.9
2018-02-05T01:36:10.928Z,-2.9
2018-02-05T01:37:14.561Z,-2.8
2018-02-05T01:38:20.963Z,-2.9
2018-02-05T01:39:24.424Z,-2.9
2018-02-05T01:40:28.633Z,-2.8
2018-02-05T01:41:34.915Z,-2.8
2018-02-05T01:42:49.292Z,-2.8
2018-02-05T01:44:04.524Z,-2.9
2018-02-05T01:45:09.727Z,-2.8
2018-02-05T01:46:21.192Z,-2.7
2018-02-05T01:47:38.196Z,-2.7
2018-02-05T01:48:44.644Z,-2.7
2018-02-05T01:49:50.137Z,-2.7
2018-02-05T01:51:05.087Z,-2.7
2018-02-05T01:52:15.824Z,-2.7
2018-02-05T01:53:31.440Z,-2.7
2018-02-05T01:54:38.765Z,-2.7
2018-02-05T01:55:53.449Z,-2.7
2018-02-05T01:57:07.623Z,-2.7
2018-02-05T01:58:19.296Z,-2.7
2018-02-05T01:59:36.435Z,-2.7
2018-02-05T02:00:42.322Z,-2.7
2018-02-05T02:01:48.279Z,-2.7
2018-02-05T02:02:53.790Z,-2.7
2018-02-05T02:03:57.200Z,-2.7
2018-02-05T02:05:06.277Z,-2.7
2018-02-05T02:06:09.677Z,-2.7
2018-02-05T02:07:14.764Z,-2.7
2018-02-05T02:08:19.619Z,-2.7
2018-02-05T02:10:00.473Z,-2.7
2018-02-05T02:11:06.620Z,-2.8
2018-02-05T02:12:14.989Z,-2.8
2018-02-05T02:13:20.331Z,-2.8
2018-02-05T02:14:27.434Z,-2.7
2018-02-05T02:15:30.992Z,-2.7
2018-02-05T02:16:36.323Z,-2.7
2018-02-05T02:17:39.714Z,-2.7
2018-02-05T02:18:44.734Z,-2.8
2018-02-05T02:19:51.688Z,-2.9
2018-02-05T02:21:01.423Z,-3
2018-02-05T02:22:07.041Z,-2.9
2018-02-05T02:23:17.053Z,-2.9
2018-02-05T02:24:23.875Z,-2.8
2018-02-05T02:25:32.382Z,-2.8
2018-02-05T02:26:38.380Z,-2.7
2018-02-05T02:27:45.229Z,-2.7
2018-02-05T02:28:49.069Z,-2.7
2018-02-05T02:29:57.754Z,-2.8
2018-02-05T02:31:01.878Z,-2.8
2018-02-05T02:32:11.068Z,-2.7
2018-02-05T02:33:16.335Z,-2.8
2018-02-05T02:34:19.974Z,-2.8
2018-02-05T02:35:23.479Z,-2.8
2018-02-05T02:36:26.981Z,-2.8
2018-02-05T02:37:30.644Z,-2.8
2018-02-05T02:38:34.972Z,-2.8
2018-02-05T02:39:39.538Z,-2.8
2018-02-05T02:40:44.572Z,-2.8
2018-02-05T02:41:47.726Z,-2.8
2018-02-05T02:42:58.205Z,-2.8
2018-02-05T02:44:03.941Z,-2.8
2018-02-05T02:45:09.940Z,-2.8
2018-02-05T02:46:14.024Z,-2.8
2018-02-05T02:47:20.084Z,-2.8
2018-02-05T02:48:29.319Z,-2.8
2018-02-05T02:49:34.537Z,-2.8
2018-02-05T02:50:37.895Z,-2.8
2018-02-05T02:51:44.850Z,-2.8
2018-02-05T02:52:50.337Z,-2.8
2018-02-05T02:54:30.997Z,-2.8
2018-02-05T02:55:35.825Z,-2.8
2018-02-05T02:56:40.919Z,-2.8
2018-02-05T02:57:44.538Z,-2.8
2018-02-05T02:58:48.165Z,-2.8
2018-02-05T02:59:52.863Z,-2.8
2018-02-05T03:00:58.465Z,-2.8
2018-02-05T03:02:03.377Z,-2.8
2018-02-05T03:03:08.532Z,-2.8
2018-02-05T03:04:11.889Z,-2.8
2018-02-05T03:05:25.877Z,-2.8
2018-02-05T03:06:30.009Z,-2.8
2018-02-05T03:07:38.481Z,-2.8
2018-02-05T03:08:41.558Z,-2.9
2018-02-05T03:09:44.917Z,-2.8
2018-02-05T03:10:51.078Z,-2.8
2018-02-05T03:11:59.821Z,-2.8
2018-02-05T03:13:16.645Z,-2.8
2018-02-05T03:14:21.289Z,-2.9
2018-02-05T03:15:25.118Z,-2.9
2018-02-05T03:17:08.352Z,-2.9
2018-02-05T03:18:14.183Z,-2.8
2018-02-05T03:19:19.523Z,-2.8
2018-02-05T03:20:25.368Z,-2.8
2018-02-05T03:21:33.255Z,-2.8
2018-02-05T03:22:38.399Z,-2.8
2018-02-05T03:23:42.437Z,-2.8
2018-02-05T03:24:48.777Z,-2.8
2018-02-05T03:25:56.669Z,-2.8
2018-02-05T03:27:02.848Z,-2.8
2018-02-05T03:28:14.920Z,-2.8
2018-02-05T03:29:18.484Z,-2.8
2018-02-05T03:30:26.938Z,-2.8
2018-02-05T03:31:30.980Z,-2.8
2018-02-05T03:32:38.302Z,-2.8
2018-02-05T03:33:41.723Z,-2.8
2018-02-05T03:34:47.796Z,-2.7
2018-02-05T03:35:53.786Z,-2.8
2018-02-05T03:36:58.173Z,-2.7
2018-02-05T03:38:02.845Z,-2.8
2018-02-05T03:39:12.933Z,-2.7
2018-02-05T03:40:17.733Z,-2.8
2018-02-05T03:41:23.782Z,-2.7
2018-02-05T03:42:31.171Z,-2.6
2018-02-05T03:43:36.075Z,-2.7
2018-02-05T03:44:39.761Z,-2.7
2018-02-05T03:45:45.485Z,-2.7
2018-02-05T03:46:51.030Z,-2.8
2018-02-05T03:48:04.988Z,-2.7
2018-02-05T03:49:13.173Z,-2.7
2018-02-05T03:50:22.207Z,-2.7
2018-02-05T03:51:26.142Z,-2.8
2018-02-05T03:52:31.037Z,-2.8
2018-02-05T03:53:37.406Z,-2.8
2018-02-05T03:54:42.365Z,-2.8
2018-02-05T03:55:45.845Z,-2.8
2018-02-05T03:56:50.313Z,-2.8
2018-02-05T03:57:56.857Z,-2.8
2018-02-05T03:59:03.634Z,-2.8
2018-02-05T04:00:10.295Z,-2.8
2018-02-05T04:01:21.970Z,-2.8
2018-02-05T04:02:26.997Z,-2.8
2018-02-05T04:03:31.966Z,-2.8
2018-02-05T04:04:36.230Z,-2.8
2018-02-05T04:05:41.445Z,-2.8
2018-02-05T04:06:45.469Z,-2.8
2018-02-05T04:07:48.874Z,-2.8
2018-02-05T04:08:52.448Z,-2.7
2018-02-05T04:09:55.950Z,-2.8
2018-02-05T04:11:00.646Z,-2.8
2018-02-05T04:12:10.633Z,-2.8
2018-02-05T04:13:15.854Z,-2.8
2018-02-05T04:14:19.605Z,-2.8
2018-02-05T04:15:23.679Z,-2.8
2018-02-05T04:16:27.041Z,-2.8
2018-02-05T04:17:31.268Z,-2.8
2018-02-05T04:18:36.140Z,-2.8
2018-02-05T04:19:40.577Z,-2.8
2018-02-05T04:20:47.663Z,-2.8
2018-02-05T04:21:53.031Z,-2.8
2018-02-05T04:23:00.930Z,-2.9
2018-02-05T04:24:04.400Z,-2.8
2018-02-05T04:25:08.630Z,-2.9
2018-02-05T04:26:12.150Z,-2.9
2018-02-05T04:27:16.556Z,-2.9
2018-02-05T04:28:21.587Z,-2.9
2018-02-05T04:29:27.075Z,-2.9
2018-02-05T04:30:34.358Z,-2.9
2018-02-05T04:31:38.260Z,-2.9
2018-02-05T04:32:55.235Z,-3
2018-02-05T04:34:06.455Z,-2.9
2018-02-05T04:35:13.207Z,-3
2018-02-05T04:36:16.726Z,-3
2018-02-05T04:37:21.047Z,-3
2018-02-05T04:38:24.445Z,-3
2018-02-05T04:39:29.440Z,-3.1
2018-02-05T04:40:34.253Z,-3.1
2018-02-05T04:41:37.690Z,-3.1
2018-02-05T04:42:41.005Z,-3
2018-02-05T04:43:46.555Z,-3
2018-02-05T04:44:57.351Z,-3
2018-02-05T04:46:01.137Z,-3
2018-02-05T04:47:04.641Z,-3
2018-02-05T04:48:08.193Z,-3
2018-02-05T04:49:11.589Z,-3
2018-02-05T04:50:15.022Z,-3.1
2018-02-05T04:51:18.400Z,-3
2018-02-05T04:52:21.878Z,-3.1
2018-02-05T04:53:25.313Z,-3.1
2018-02-05T04:54:28.856Z,-3.1
2018-02-05T04:55:35.955Z,-3.1
2018-02-05T04:56:39.330Z,-3.2
2018-02-05T04:57:42.735Z,-3.1
2018-02-05T04:58:46.157Z,-3.2
2018-02-05T04:59:49.745Z,-3.1
2018-02-05T05:00:53.754Z,-3.2
2018-02-05T05:01:57.166Z,-3.2
2018-02-05T05:03:00.675Z,-3.2
2018-02-05T05:04:05.695Z,-3.2
2018-02-05T05:05:10.470Z,-3.2
2018-02-05T05:06:17.533Z,-3.3
2018-02-05T05:07:21.990Z,-3.4
2018-02-05T05:08:25.952Z,-3.4
2018-02-05T05:09:29.434Z,-3.5
2018-02-05T05:10:32.883Z,-3.5
2018-02-05T05:11:36.718Z,-3.4
2018-02-05T05:12:40.222Z,-3.4
2018-02-05T05:13:43.739Z,-3.4
2018-02-05T05:14:47.209Z,-3.5
2018-02-05T05:15:50.432Z,-3.5
2018-02-05T05:16:58.321Z,-3.5
2018-02-05T05:18:02.005Z,-3.5
2018-02-05T05:19:05.315Z,-3.5
2018-02-05T05:20:09.466Z,-3.5
2018-02-05T05:21:12.949Z,-3.5
2018-02-05T05:22:16.693Z,-3.5
2018-02-05T05:23:21.091Z,-3.5
2018-02-05T05:24:24.609Z,-3.5
2018-02-05T05:25:29.002Z,-3.5
2018-02-05T05:26:33.210Z,-3.5
2018-02-05T05:27:41.023Z,-3.5
2018-02-05T05:28:45.251Z,-3.5
2018-02-05T05:29:51.206Z,-3.5
2018-02-05T05:30:55.272Z,-3.5
2018-02-05T05:31:59.288Z,-3.5
2018-02-05T05:33:04.440Z,-3.4
2018-02-05T05:34:07.951Z,-3.4
2018-02-05T05:35:11.340Z,-3.5
2018-02-05T05:36:16.726Z,-3.5
2018-02-05T05:37:20.887Z,-3.5
2018-02-05T05:39:35.946Z,-3.5
2018-02-05T05:40:39.422Z,-3.5
2018-02-05T05:41:43.032Z,-3.5
2018-02-05T05:42:46.427Z,-3.5
2018-02-05T05:43:50.501Z,-3.4
2018-02-05T05:44:53.859Z,-3.5
2018-02-05T05:45:58.002Z,-3.5
2018-02-05T05:47:02.363Z,-3.5
2018-02-05T05:48:05.749Z,-3.5
2018-02-05T05:49:09.356Z,-3.6
2018-02-05T05:50:16.728Z,-3.6
2018-02-05T05:51:20.173Z,-3.6
2018-02-05T05:52:24.222Z,-3.6
2018-02-05T05:53:29.036Z,-3.6
2018-02-05T05:54:34.631Z,-3.7
2018-02-05T05:55:38.259Z,-3.7
2018-02-05T05:56:41.688Z,-3.7
2018-02-05T05:57:46.354Z,-3.7
2018-02-05T05:58:50.789Z,-3.7
2018-02-05T05:59:54.587Z,-3.7
2018-02-05T06:01:02.352Z,-3.7
2018-02-05T06:02:05.901Z,-3.7
2018-02-05T06:03:11.151Z,-3.8
2018-02-05T06:04:14.772Z,-3.7
2018-02-05T06:05:18.418Z,-3.8
2018-02-05T06:06:22.115Z,-3.8
2018-02-05T06:07:26.577Z,-3.8
2018-02-05T06:08:30.015Z,-3.7
2018-02-05T06:09:33.917Z,-3.7
2018-02-05T06:10:38.694Z,-3.8
2018-02-05T06:11:45.710Z,-3.8
2018-02-05T06:12:49.215Z,-3.8
2018-02-05T06:13:52.513Z,-3.9
2018-02-05T06:14:56.028Z,-3.8
2018-02-05T06:15:59.408Z,-3.8
2018-02-05T06:17:02.884Z,-4
2018-02-05T06:18:07.508Z,-3.8
2018-02-05T06:19:11.064Z,-3.7
2018-02-05T06:20:14.637Z,-3.7
2018-02-05T06:21:18.300Z,-3.8
2018-02-05T06:22:25.372Z,-3.8
2018-02-05T06:23:29.507Z,-3.8
2018-02-05T06:24:33.179Z,-3.8
2018-02-05T06:25:36.724Z,-3.8
2018-02-05T06:26:41.338Z,-3.8
2018-02-05T06:27:45.636Z,-3.9
2018-02-05T06:28:49.217Z,-3.9
2018-02-05T06:29:52.787Z,-3.9
2018-02-05T06:30:56.455Z,-3.9
2018-02-05T06:31:59.962Z,-3.9
2018-02-05T06:33:07.197Z,-3.9
2018-02-05T06:34:10.807Z,-4
2018-02-05T06:35:14.346Z,-4
2018-02-05T06:36:17.762Z,-3.9
2018-02-05T06:37:21.347Z,-3.9
2018-02-05T06:38:24.856Z,-3.9
2018-02-05T06:39:28.282Z,-3.9
2018-02-05T06:40:31.873Z,-3.9
2018-02-05T06:41:35.394Z,-3.9
2018-02-05T06:42:38.764Z,-3.9
2018-02-05T06:43:46.501Z,-3.9
2018-02-05T06:44:49.898Z,-3.9
2018-02-05T06:45:53.918Z,-3.9
2018-02-05T06:46:57.535Z,-3.9
2018-02-05T06:48:01.561Z,-3.9
2018-02-05T06:49:05.205Z,-3.9
2018-02-05T06:50:08.774Z,-3.9
2018-02-05T06:51:12.294Z,-4
2018-02-05T06:52:16.644Z,-3.9
2018-02-05T06:53:20.220Z,-3.9
2018-02-05T06:54:29.168Z,-3.9
2018-02-05T06:55:32.761Z,-4
2018-02-05T06:56:36.823Z,-4
2018-02-05T06:57:41.568Z,-4
2018-02-05T06:58:46.482Z,-4
2018-02-05T06:59:50.812Z,-4
2018-02-05T07:00:54.436Z,-3.9
2018-02-05T07:01:58.895Z,-3.9
2018-02-05T07:03:02.489Z,-3.9
2018-02-05T07:04:06.256Z,-3.9
2018-02-05T07:05:14.698Z,-3.8
2018-02-05T07:06:18.146Z,-3.9
2018-02-05T07:07:21.660Z,-3.9
2018-02-05T07:08:25.214Z,-3.8
2018-02-05T07:09:28.573Z,-3.8
2018-02-05T07:10:33.034Z,-3.8
2018-02-05T07:11:36.601Z,-3.8
2018-02-05T07:12:40.197Z,-3.8
2018-02-05T07:13:44.441Z,-3.8
2018-02-05T07:14:48.960Z,-3.8
2018-02-05T07:16:28.692Z,-3.8
2018-02-05T07:17:32.284Z,-3.8
2018-02-05T07:18:36.536Z,-3.7
2018-02-05T07:19:40.819Z,-3.7
2018-02-05T07:20:45.804Z,-3.7
2018-02-05T07:21:49.415Z,-3.6
2018-02-05T07:22:53.549Z,-3.6
2018-02-05T07:23:57.089Z,-3.6
2018-02-05T07:25:00.537Z,-3.6
2018-02-05T07:26:04.098Z,-3.5
2018-02-05T07:27:13.114Z,-3.5
2018-02-05T07:28:16.608Z,-3.5
2018-02-05T07:29:20.101Z,-3.4
2018-02-05T07:30:23.554Z,-3.4
2018-02-05T07:31:27.686Z,-3.4
2018-02-05T07:32:31.084Z,-3.3
2018-02-05T07:33:34.482Z,-3.3
2018-02-05T07:34:38.628Z,-3.2
2018-02-05T07:35:42.447Z,-3.2
2018-02-05T07:36:46.012Z,-3.2
2018-02-05T07:37:55.120Z,-3.1
2018-02-05T07:38:58.524Z,-3.1
2018-02-05T07:40:02.063Z,-3
2018-02-05T07:41:05.753Z,-3
2018-02-05T07:42:09.176Z,-2.9
2018-02-05T07:43:12.789Z,-3
2018-02-05T07:44:17.656Z,-2.9
2018-02-05T07:45:21.067Z,-2.9
2018-02-05T07:46:24.569Z,-2.9
2018-02-05T07:47:28.767Z,-2.8
2018-02-05T07:48:36.067Z,-2.8
2018-02-05T07:49:39.886Z,-2.8
2018-02-05T07:50:43.437Z,-2.7
2018-02-05T07:51:46.783Z,-2.6
2018-02-05T07:52:50.402Z,-2.5
2018-02-05T07:53:53.986Z,-2.4
2018-02-05T07:54:57.727Z,-2.3
2018-02-05T07:56:02.034Z,-2.3
2018-02-05T07:57:05.696Z,-2.2
2018-02-05T07:58:09.847Z,-2.1
2018-02-05T07:59:50.316Z,-2.1
2018-02-05T08:00:54.536Z,-2
2018-02-05T08:01:58.127Z,-2.1
2018-02-05T08:03:03.391Z,-2.1
2018-02-05T08:04:10.764Z,-2
2018-02-05T08:05:14.211Z,-1.9
2018-02-05T08:06:17.622Z,-1.8
2018-02-05T08:07:21.005Z,-1.7
2018-02-05T08:08:24.296Z,-1.7
2018-02-05T08:09:27.623Z,-1.8
2018-02-05T08:10:36.158Z,-1.7
2018-02-05T08:11:39.722Z,-1.7
2018-02-05T08:12:43.351Z,-1.5
2018-02-05T08:13:46.695Z,-1.5
2018-02-05T08:14:50.829Z,-1.3
2018-02-05T08:15:54.256Z,-1.5
2018-02-05T08:16:58.400Z,-1.4
2018-02-05T08:18:01.976Z,-1.4
2018-02-05T08:19:07.730Z,-1.2
2018-02-05T08:20:11.357Z,-1.2
2018-02-05T08:21:18.597Z,-1.2
2018-02-05T08:22:23.294Z,-1.2
2018-02-05T08:23:27.289Z,-1.1
2018-02-05T08:24:31.881Z,-1.1
2018-02-05T08:25:35.959Z,-1.2
2018-02-05T08:26:40.351Z,-1.2
2018-02-05T08:27:44.480Z,-1.2
2018-02-05T08:28:48.513Z,-1.3
2018-02-05T08:29:52.704Z,-1.3
2018-02-05T08:30:56.298Z,-1.4
2018-02-05T08:32:06.417Z,-1.2
2018-02-05T08:33:11.080Z,-1.1
2018-02-05T08:34:15.159Z,-1
2018-02-05T08:35:19.907Z,-1
2018-02-05T08:36:24.085Z,-0.9
2018-02-05T08:37:29.136Z,-0.8
2018-02-05T08:38:32.674Z,-0.7
2018-02-05T08:39:36.832Z,-0.7
2018-02-05T08:40:40.820Z,-0.7
2018-02-05T08:41:44.402Z,-0.7
2018-02-05T08:42:51.537Z,-0.7
2018-02-05T08:43:55.965Z,-0.8
2018-02-05T08:44:59.599Z,-0.8
2018-02-05T08:46:03.220Z,-0.8
2018-02-05T08:47:08.242Z,-0.8
2018-02-05T08:48:12.561Z,-0.8
2018-02-05T08:49:17.320Z,-0.9
2018-02-05T08:50:21.451Z,-0.9
2018-02-05T08:51:26.722Z,-1
2018-02-05T08:52:30.187Z,-1
2018-02-05T08:54:11.119Z,-1.1
2018-02-05T08:55:15.057Z,-1.3
2018-02-05T08:56:19.757Z,-1.3
2018-02-05T08:57:24.420Z,-1.2
2018-02-05T08:58:29.266Z,-1.3
2018-02-05T08:59:33.724Z,-1.1
2018-02-05T09:00:37.301Z,-1.2
2018-02-05T09:01:42.263Z,-1.2
2018-02-05T09:02:46.008Z,-1.2
2018-02-05T09:03:50.490Z,-1.3
2018-02-05T09:04:57.936Z,-1.2
2018-02-05T09:06:01.581Z,-1.3
2018-02-05T09:07:05.882Z,-1.3
2018-02-05T09:08:09.360Z,-1.1
2018-02-05T09:09:12.926Z,-1.1
2018-02-05T09:10:16.584Z,-1.2
2018-02-05T09:11:20.099Z,-1.2
2018-02-05T09:12:23.669Z,-1.1
2018-02-05T09:13:28.580Z,-1.2
2018-02-05T09:14:31.978Z,-1.1
2018-02-05T09:15:39.017Z,-1
2018-02-05T09:16:43.132Z,-1
2018-02-05T09:17:46.627Z,-0.9
2018-02-05T09:18:50.299Z,-0.9
2018-02-05T09:19:53.707Z,-1
2018-02-05T09:20:57.235Z,-0.9
2018-02-05T09:22:00.670Z,-0.9
2018-02-05T09:23:04.140Z,-0.9
2018-02-05T09:24:07.697Z,-1
2018-02-05T09:25:11.124Z,-1.1
2018-02-05T09:26:19.246Z,-1.1
2018-02-05T09:27:22.847Z,-1.1
2018-02-05T09:28:26.255Z,-1
2018-02-05T09:29:30.327Z,-1
2018-02-05T09:30:34.541Z,-1.2
2018-02-05T09:31:38.206Z,-1
2018-02-05T09:32:41.683Z,-1
2018-02-05T09:33:45.162Z,-0.9
2018-02-05T09:34:48.814Z,-1
2018-02-05T09:35:53.239Z,-1.1
2018-02-05T09:37:01.034Z,-1.2
2018-02-05T09:38:05.141Z,-1
2018-02-05T09:39:09.293Z,-1
2018-02-05T09:40:12.938Z,-1.1
2018-02-05T09:41:16.523Z,-1
2018-02-05T09:42:20.167Z,-1
2018-02-05T09:43:23.763Z,-1
2018-02-05T09:44:27.268Z,-1
2018-02-05T09:45:30.696Z,-1.1
2018-02-05T09:46:34.273Z,-1
2018-02-05T09:47:42.067Z,-1
2018-02-05T09:48:45.747Z,-1.1
2018-02-05T09:49:49.552Z,-1
2018-02-05T09:50:53.118Z,-1
2018-02-05T09:51:56.555Z,-0.9
2018-02-05T09:52:59.962Z,-1
2018-02-05T09:54:04.589Z,-1.1
2018-02-05T09:55:08.188Z,-1
2018-02-05T09:56:11.722Z,-1.1
2018-02-05T09:57:15.253Z,-1
2018-02-05T09:58:22.457Z,-1.1
2018-02-05T09:59:25.941Z,-1.1
2018-02-05T10:00:29.465Z,-1
2018-02-05T10:01:33.923Z,-0.9
2018-02-05T10:02:38.454Z,-0.8
2018-02-05T10:03:41.912Z,-0.8
2018-02-05T10:04:45.434Z,-0.7
2018-02-05T10:05:49.000Z,-0.7
2018-02-05T10:06:52.551Z,-0.7
2018-02-05T10:07:56.078Z,-0.7
2018-02-05T10:09:03.187Z,-0.7
2018-02-05T10:10:06.623Z,-0.6
2018-02-05T10:11:10.164Z,-0.7
2018-02-05T10:12:13.670Z,-0.6
2018-02-05T10:13:17.226Z,-0.6
2018-02-05T10:14:21.425Z,-0.6
2018-02-05T10:15:24.901Z,-0.6
2018-02-05T10:16:28.335Z,-0.6
2018-02-05T10:17:31.786Z,-0.5
2018-02-05T10:18:35.797Z,-0.6
2018-02-05T10:19:42.758Z,-0.5
2018-02-05T10:20:46.210Z,-0.5
2018-02-05T10:21:51.356Z,-0.5
2018-02-05T10:22:55.461Z,-0.4
2018-02-05T10:23:58.988Z,-0.4
2018-02-05T10:25:03.333Z,-0.4
2018-02-05T10:26:06.924Z,-0.5
2018-02-05T10:27:10.488Z,-0.5
2018-02-05T10:28:14.647Z,-0.6
2018-02-05T10:29:19.128Z,-0.6
2018-02-05T10:30:26.471Z,-0.6
2018-02-05T10:31:30.559Z,-0.6
2018-02-05T10:32:34.791Z,-0.6
2018-02-05T10:33:38.658Z,-0.5
2018-02-05T10:34:42.253Z,-0.5
2018-02-05T10:35:46.287Z,-0.4
2018-02-05T10:36:50.426Z,-0.3
2018-02-05T10:37:54.824Z,-0.2
2018-02-05T10:38:59.064Z,-0.2
2018-02-05T10:40:02.524Z,-0.2
2018-02-05T10:41:10.425Z,-0.2
2018-02-05T10:42:13.840Z,-0.1
2018-02-05T10:43:17.754Z,-0.1
2018-02-05T10:44:21.199Z,-0.2
2018-02-05T10:45:24.676Z,-0.3
2018-02-05T10:46:29.154Z,-0.2
2018-02-05T10:47:33.289Z,-0.3
2018-02-05T10:48:37.656Z,-0.2
2018-02-05T10:49:41.564Z,-0.1
2018-02-05T10:50:45.093Z,0
2018-02-05T10:51:55.095Z,0
2018-02-05T10:52:58.668Z,-0.1
2018-02-05T10:54:02.209Z,0
2018-02-05T10:55:07.622Z,0
2018-02-05T10:56:11.694Z,0
2018-02-05T10:57:16.819Z,0.1
2018-02-05T10:58:20.952Z,0.1
2018-02-05T10:59:25.592Z,0.1
2018-02-05T11:00:30.160Z,0
2018-02-05T11:01:34.497Z,0.1
2018-02-05T11:02:43.170Z,0.1
2018-02-05T11:03:49.083Z,0.1
2018-02-05T11:04:53.768Z,0.2
2018-02-05T11:05:57.946Z,0.3
2018-02-05T11:07:03.429Z,0.4
2018-02-05T11:08:07.062Z,0.5
2018-02-05T11:09:10.478Z,0.5
2018-02-05T11:10:14.362Z,0.5
2018-02-05T11:11:18.563Z,0.6
2018-02-05T11:12:21.952Z,0.6
2018-02-05T11:13:29.649Z,0.5
2018-02-05T11:14:33.134Z,0.4
2018-02-05T11:15:36.728Z,0.4
2018-02-05T11:16:40.168Z,0.4
2018-02-05T11:17:43.561Z,0.4
2018-02-05T11:18:47.012Z,0.6
2018-02-05T11:19:51.441Z,0.5
2018-02-05T11:20:54.955Z,0.6
2018-02-05T11:21:58.440Z,0.5
2018-02-05T11:23:01.913Z,0.4
2018-02-05T11:24:10.546Z,0.5
2018-02-05T11:25:14.163Z,0.4
2018-02-05T11:26:17.755Z,0.2
2018-02-05T11:27:21.663Z,0.2
2018-02-05T11:28:25.217Z,0.3
2018-02-05T11:29:28.836Z,0.4
2018-02-05T11:30:33.812Z,0.5
2018-02-05T11:31:37.358Z,0.6
2018-02-05T11:32:40.895Z,0.4
2018-02-05T11:33:44.418Z,0.2
2018-02-05T11:34:51.668Z,0.3
2018-02-05T11:35:55.178Z,0.4
2018-02-05T11:36:59.861Z,0.3
2018-02-05T11:38:03.348Z,0.5
2018-02-05T11:39:06.874Z,0.5
2018-02-05T11:40:10.910Z,0.5
2018-02-05T11:41:14.562Z,0.6
2018-02-05T11:42:18.154Z,0.3
2018-02-05T11:43:21.644Z,0.5
2018-02-05T11:44:25.194Z,0.5
2018-02-05T11:45:32.056Z,0.4
2018-02-05T11:46:36.199Z,0.4
2018-02-05T11:47:39.598Z,0.3
2018-02-05T11:48:43.017Z,0.3
2018-02-05T11:49:47.303Z,0.4
2018-02-05T11:50:50.723Z,0.5
2018-02-05T11:51:54.427Z,0.5
2018-02-05T11:52:57.894Z,0.5
2018-02-05T11:54:01.952Z,0.6
2018-02-05T11:55:05.501Z,0.6
2018-02-05T11:56:12.743Z,0.6
2018-02-05T11:57:16.193Z,0.7
2018-02-05T11:58:19.883Z,0.8
2018-02-05T11:59:23.319Z,0.8
2018-02-05T12:00:27.004Z,0.7
2018-02-05T12:01:30.460Z,0.3
2018-02-05T12:02:33.839Z,0.3
2018-02-05T12:03:37.403Z,0.3
2018-02-05T12:04:41.509Z,0.4
2018-02-05T12:05:45.635Z,0.3
2018-02-05T12:06:52.850Z,0.4
2018-02-05T12:07:59.821Z,0.2
2018-02-05T12:09:03.397Z,0.2
2018-02-05T12:10:06.949Z,0.2
2018-02-05T12:11:11.729Z,0.4
2018-02-05T12:12:15.818Z,0.5
2018-02-05T12:13:19.418Z,0.6
2018-02-05T12:14:23.453Z,0.7
2018-02-05T12:15:27.905Z,0.8
2018-02-05T12:16:31.381Z,0.8
2018-02-05T12:17:39.215Z,0.9
2018-02-05T12:18:42.746Z,0.8
2018-02-05T12:19:46.091Z,0.8
2018-02-05T12:20:50.862Z,0.8
2018-02-05T12:21:54.980Z,0.8
2018-02-05T12:22:59.747Z,0.7
2018-02-05T12:24:04.071Z,0.4
2018-02-05T12:25:08.683Z,0.5
2018-02-05T12:26:13.099Z,0.7
2018-02-05T12:27:18.168Z,0.8
2018-02-05T12:28:26.200Z,0.8
2018-02-05T12:29:29.622Z,0.7
2018-02-05T12:30:43.053Z,0.5
2018-02-05T12:31:46.509Z,0.6
2018-02-05T12:32:50.022Z,0.7
2018-02-05T12:33:53.653Z,0.7
2018-02-05T12:34:57.100Z,0.7
2018-02-05T12:36:01.855Z,0.7
2018-02-05T12:37:05.225Z,0.7
2018-02-05T12:38:09.556Z,0.5
2018-02-05T12:39:52.492Z,0.7
2018-02-05T12:40:56.895Z,0.6
2018-02-05T12:42:01.604Z,0.3
2018-02-05T12:43:06.029Z,0.5
2018-02-05T12:44:11.190Z,0.5
2018-02-05T12:45:19.354Z,0.5
2018-02-05T12:46:24.207Z,0.5
2018-02-05T12:47:29.540Z,0.5
2018-02-05T12:48:32.842Z,0.5
2018-02-05T12:49:36.322Z,0.5
2018-02-05T12:50:44.358Z,0.5
2018-02-05T12:51:48.559Z,0.3
2018-02-05T12:52:51.938Z,0.2
2018-02-05T12:53:55.341Z,0.1
2018-02-05T12:54:58.864Z,0.1
2018-02-05T12:56:03.769Z,0.2
2018-02-05T12:57:07.215Z,0.3
2018-02-05T12:58:12.815Z,0.2
2018-02-05T12:59:16.251Z,0.3
2018-02-05T13:00:19.366Z,0.2
2018-02-05T13:01:28.217Z,0.2
2018-02-05T13:02:31.869Z,0.3
2018-02-05T13:03:35.780Z,0.4
2018-02-05T13:04:40.489Z,0.3
2018-02-05T13:05:47.416Z,0.3
2018-02-05T13:06:50.932Z,0.4
2018-02-05T13:07:54.909Z,0.5
2018-02-05T13:08:58.479Z,0.5
2018-02-05T13:10:02.702Z,0.4
2018-02-05T13:11:05.895Z,0.3
2018-02-05T13:12:13.621Z,0.4
2018-02-05T13:13:17.106Z,0.5
2018-02-05T13:14:20.503Z,0.5
2018-02-05T13:15:25.186Z,0.4
2018-02-05T13:16:28.644Z,0.4
2018-02-05T13:17:32.140Z,0.5
2018-02-05T13:18:36.421Z,0.5
2018-02-05T13:19:39.836Z,0.5
2018-02-05T13:20:43.307Z,0.4
2018-02-05T13:21:46.845Z,0.3
2018-02-05T13:22:54.571Z,0.2
2018-02-05T13:23:58.656Z,0.4
2018-02-05T13:25:02.008Z,0.3
2018-02-05T13:26:06.912Z,0.3
2018-02-05T13:27:10.854Z,0.4
2018-02-05T13:28:14.329Z,0.3
2018-02-05T13:29:18.406Z,0.2
2018-02-05T13:30:21.913Z,0.1
2018-02-05T13:31:25.125Z,0.1
2018-02-05T13:32:28.426Z,0.1
2018-02-05T13:33:35.542Z,0
2018-02-05T13:34:39.278Z,-0.1
2018-02-05T13:35:42.760Z,0
2018-02-05T13:36:46.506Z,0.1
2018-02-05T13:37:51.169Z,0.2
2018-02-05T13:38:55.669Z,0.1
2018-02-05T13:39:59.985Z,0.1
2018-02-05T13:41:04.919Z,0.1
2018-02-05T13:42:09.352Z,0.1
2018-02-05T13:43:13.403Z,0.3
2018-02-05T13:44:21.289Z,0.3
2018-02-05T13:45:24.839Z,0.3
2018-02-05T13:46:29.482Z,0.3
2018-02-05T13:47:33.613Z,0.1
2018-02-05T13:48:37.689Z,0
2018-02-05T13:49:41.027Z,0
2018-02-05T13:50:44.506Z,0
2018-02-05T13:51:49.164Z,-0.1
2018-02-05T13:52:52.647Z,-0.2
2018-02-05T13:53:56.574Z,-0.3
2018-02-05T13:55:04.972Z,-0.3
2018-02-05T13:56:08.355Z,-0.3
2018-02-05T13:57:11.817Z,-0.2
2018-02-05T13:58:15.611Z,-0.2
2018-02-05T13:59:19.108Z,-0.3
2018-02-05T14:00:22.580Z,-0.4
2018-02-05T14:01:26.249Z,-0.2
2018-02-05T14:02:31.574Z,-0.1
2018-02-05T14:03:35.252Z,-0.4
2018-02-05T14:04:38.630Z,-0.3
2018-02-05T14:05:45.808Z,-0.3
2018-02-05T14:06:49.858Z,-0.4
2018-02-05T14:07:53.275Z,-0.7
2018-02-05T14:08:57.519Z,-0.8
2018-02-05T14:10:00.889Z,-0.7
2018-02-05T14:11:04.444Z,-0.6
2018-02-05T14:12:07.874Z,-0.5
2018-02-05T14:13:11.298Z,-0.5
2018-02-05T14:14:17.100Z,-0.4
2018-02-05T14:15:20.524Z,-0.4
2018-02-05T14:16:27.522Z,-0.3
2018-02-05T14:17:31.912Z,-0.4
2018-02-05T14:18:36.721Z,-0.5
2018-02-05T14:19:40.276Z,-0.5
2018-02-05T14:20:43.932Z,-0.4
2018-02-05T14:21:47.829Z,-0.4
2018-02-05T14:22:51.329Z,-0.4
2018-02-05T14:23:55.420Z,-0.5
2018-02-05T14:24:59.455Z,-0.5
2018-02-05T14:26:04.140Z,-0.5
2018-02-05T14:27:44.839Z,-0.5
2018-02-05T14:28:48.116Z,-0.6
2018-02-05T14:29:51.860Z,-0.8
2018-02-05T14:30:57.117Z,-0.7
2018-02-05T14:32:00.633Z,-0.7
2018-02-05T14:33:07.019Z,-0.8
2018-02-05T14:34:10.731Z,-1
2018-02-05T14:35:14.851Z,-1.2
2018-02-05T14:36:18.998Z,-1.2
2018-02-05T14:37:23.287Z,-0.9
2018-02-05T14:38:32.991Z,-0.9
2018-02-05T14:39:37.397Z,-1
2018-02-05T14:40:43.133Z,-1